createdAt,value
2023-04-18T00:01:09.798Z,26.60
2023-04-18T00:03:38.220Z,24.30
2023-04-18T00:06:06.929Z,25.20
2023-04-18T00:08:36.196Z,25.88
2023-04-18T00:11:04.089Z,28.38
2023-04-18T00:13:32.700Z,26.80
2023-04-18T00:16:00.569Z,24.20
2023-04-18T00:18:28.480Z,28.02
2023-04-18T00:20:56.777Z,25.48
2023-04-18T00:23:28.093Z,24.75
2023-04-18T00:25:57.384Z,24.25
2023-04-18T00:28:25.262Z,27.52
2023-04-18T00:30:53.220Z,27.55
2023-04-18T00:33:21.262Z,28.10
2023-04-18T00:35:49.164Z,26.77
2023-04-18T00:38:17.130Z,28.10
2023-04-18T00:40:45.002Z,26.58
2023-04-18T00:43:16.123Z,27.10
2023-04-18T00:45:44.048Z,27.25
2023-04-18T00:48:12.368Z,25.67
2023-04-18T00:50:41.584Z,27.20
2023-04-18T00:53:10.446Z,28.17
2023-04-18T00:55:39.150Z,31.20
2023-04-18T00:58:09.658Z,28.70
2023-04-18T01:00:38.951Z,25.88
2023-04-18T01:03:08.683Z,28.90
2023-04-18T01:05:37.252Z,30.75
2023-04-18T01:08:05.521Z,28.77
2023-04-18T01:10:33.603Z,30.73
2023-04-18T01:13:19.800Z,31.85
2023-04-18T01:15:51.725Z,28.85
2023-04-18T01:18:20.833Z,28.33
2023-04-18T01:20:50.089Z,30.95
2023-04-18T01:23:19.162Z,31.70
2023-04-18T01:25:49.241Z,30.45
2023-04-18T01:28:17.219Z,32.00
2023-04-18T01:30:45.121Z,33.50
2023-04-18T01:33:13.076Z,36.20
2023-04-18T01:35:40.998Z,30.98
2023-04-18T01:38:08.852Z,33.95
2023-04-18T01:40:36.718Z,33.97
2023-04-18T01:43:05.982Z,30.42
2023-04-18T01:45:33.886Z,33.45
2023-04-18T01:48:01.894Z,33.88
2023-04-18T01:50:29.751Z,32.10
2023-04-18T01:52:57.626Z,32.08
2023-04-18T01:55:25.501Z,32.30
2023-04-18T01:57:53.512Z,32.30
2023-04-18T02:00:23.118Z,34.90
2023-04-18T02:02:51.556Z,33.63
2023-04-18T02:05:19.690Z,32.40
2023-04-18T02:07:49.213Z,37.08
2023-04-18T02:10:17.184Z,34.13
2023-04-18T02:12:45.253Z,34.38
2023-04-18T02:15:13.136Z,35.85
2023-04-18T02:17:42.534Z,38.13
2023-04-18T02:20:11.112Z,33.40
2023-04-18T02:22:39.537Z,35.97
2023-04-18T02:25:08.247Z,32.33
2023-04-18T02:27:36.118Z,31.83
2023-04-18T02:30:04.180Z,32.38
2023-04-18T02:32:32.197Z,34.22
2023-04-18T02:35:01.575Z,34.97
2023-04-18T02:37:29.495Z,33.25
2023-04-18T02:39:57.349Z,35.63
2023-04-18T02:42:25.276Z,35.05
2023-04-18T02:44:53.261Z,31.48
2023-04-18T02:47:21.659Z,35.97
2023-04-18T02:49:49.601Z,32.78
2023-04-18T02:52:19.954Z,33.55
2023-04-18T02:54:47.850Z,35.97
2023-04-18T02:57:15.747Z,34.90
2023-04-18T02:59:43.620Z,30.63
2023-04-18T03:02:11.560Z,32.08
2023-04-18T03:04:39.483Z,34.20
2023-04-18T03:07:07.483Z,30.20
2023-04-18T03:09:36.739Z,31.25
2023-04-18T03:12:04.938Z,29.50
2023-04-18T03:14:32.815Z,30.77
2023-04-18T03:17:00.683Z,28.17
2023-04-18T03:19:28.501Z,32.03
2023-04-18T03:21:56.382Z,30.42
2023-04-18T03:24:24.281Z,30.95
2023-04-18T03:26:54.026Z,30.35
2023-04-18T03:29:21.875Z,27.50
2023-04-18T03:31:49.791Z,31.23
2023-04-18T03:34:17.757Z,31.77
2023-04-18T03:36:47.843Z,29.50
2023-04-18T03:39:16.200Z,33.63
2023-04-18T03:41:44.083Z,32.30
2023-04-18T03:44:13.686Z,29.30
2023-04-18T03:46:42.050Z,28.98
2023-04-18T03:49:10.006Z,29.92
2023-04-18T03:51:44.276Z,31.33
2023-04-18T03:54:12.534Z,29.85
2023-04-18T03:56:41.052Z,31.73
2023-04-18T03:59:08.960Z,31.38
2023-04-18T04:01:38.286Z,29.70
2023-04-18T04:04:06.996Z,31.73
2023-04-18T04:06:34.963Z,30.40
2023-04-18T04:09:02.856Z,32.45
2023-04-18T04:11:30.721Z,30.10
2023-04-18T04:13:58.552Z,28.65
2023-04-18T04:16:26.538Z,26.33
2023-04-18T04:18:55.837Z,28.23
2023-04-18T04:21:23.743Z,27.30
2023-04-18T04:23:51.535Z,23.80
2023-04-18T04:26:19.497Z,31.30
2023-04-18T04:28:47.541Z,26.73
2023-04-18T04:31:16.416Z,26.48
2023-04-18T04:33:44.954Z,30.27
2023-04-18T04:36:16.152Z,22.35
2023-04-18T04:38:45.705Z,20.15
2023-04-18T04:41:13.608Z,25.60
2023-04-18T04:43:42.867Z,24.48
2023-04-18T04:46:13.702Z,25.20
2023-04-18T04:48:44.163Z,24.60
2023-04-18T04:51:12.090Z,22.25
2023-04-18T04:53:41.402Z,27.23
2023-04-18T04:56:09.619Z,23.42
2023-04-18T04:58:38.179Z,23.92
2023-04-18T05:01:07.718Z,23.17
2023-04-18T05:03:36.536Z,26.63
2023-04-18T05:06:04.875Z,22.60
2023-04-18T05:08:32.769Z,24.05
2023-04-18T05:11:02.477Z,23.35
2023-04-18T05:13:30.378Z,22.40
2023-04-18T05:15:59.336Z,23.02
2023-04-18T05:18:27.299Z,20.58
2023-04-18T05:20:55.874Z,20.83
2023-04-18T05:23:23.943Z,20.88
2023-04-18T05:25:52.016Z,22.05
2023-04-18T05:28:21.289Z,21.60
2023-04-18T05:30:49.219Z,22.85
2023-04-18T05:33:17.108Z,22.40
2023-04-18T05:35:45.093Z,19.77
2023-04-18T05:38:12.960Z,18.88
2023-04-18T05:40:42.428Z,19.45
2023-04-18T05:43:10.286Z,19.67
2023-04-18T05:45:39.572Z,18.23
2023-04-18T05:48:07.604Z,19.05
2023-04-18T05:50:35.743Z,16.33
2023-04-18T05:53:03.613Z,16.98
2023-04-18T05:55:31.465Z,16.50
2023-04-18T05:57:59.379Z,18.02
2023-04-18T06:00:27.635Z,16.63
2023-04-18T06:02:57.352Z,16.73
2023-04-18T06:05:25.633Z,15.75
2023-04-18T06:07:53.605Z,15.27
2023-04-18T06:10:21.671Z,15.05
2023-04-18T06:12:49.554Z,17.80
2023-04-18T06:15:17.740Z,14.70
2023-04-18T06:17:45.832Z,14.82
2023-04-18T06:20:15.433Z,15.93
2023-04-18T06:22:43.295Z,14.32
2023-04-18T06:25:11.400Z,14.23
2023-04-18T06:27:39.552Z,17.45
2023-04-18T06:30:08.322Z,13.60
2023-04-18T06:32:36.255Z,14.20
2023-04-18T06:35:04.391Z,13.60
2023-04-18T06:37:33.699Z,15.23
2023-04-18T06:40:01.608Z,11.82
2023-04-18T06:42:29.496Z,11.52
2023-04-18T06:44:57.416Z,14.23
2023-04-18T06:47:25.595Z,13.57
2023-04-18T06:49:53.535Z,11.35
2023-04-18T06:52:21.443Z,13.23
2023-04-18T06:54:50.700Z,11.27
2023-04-18T06:57:18.633Z,10.98
2023-04-18T06:59:46.542Z,11.95
2023-04-18T07:02:14.765Z,13.93
2023-04-18T07:04:42.813Z,10.20
2023-04-18T07:07:10.801Z,11.38
2023-04-18T07:09:38.657Z,9.85
2023-04-18T07:12:08.309Z,10.23
2023-04-18T07:14:36.180Z,10.88
2023-04-18T07:17:05.084Z,10.85
2023-04-18T07:19:33.060Z,10.38
2023-04-18T07:22:02.109Z,11.82
2023-04-18T07:24:30.503Z,14.23
2023-04-18T07:27:01.345Z,10.68
2023-04-18T07:29:30.711Z,10.77
2023-04-18T07:31:59.149Z,10.93
2023-04-18T07:34:29.622Z,12.95
2023-04-18T07:36:58.062Z,12.45
2023-04-18T07:39:26.030Z,11.52
2023-04-18T07:41:53.841Z,12.02
2023-04-18T07:44:22.038Z,11.23
2023-04-18T07:46:51.243Z,10.57
2023-04-18T07:49:19.214Z,9.63
2023-04-18T07:51:47.109Z,11.35
2023-04-18T07:54:15.001Z,10.38
2023-04-18T07:56:42.917Z,11.73
2023-04-18T07:59:10.887Z,10.02
2023-04-18T08:01:38.730Z,11.45
2023-04-18T08:04:08.266Z,12.50
2023-04-18T08:06:36.265Z,11.35
2023-04-18T08:09:05.920Z,10.93
2023-04-18T08:11:34.492Z,13.10
2023-04-18T08:14:04.655Z,12.35
2023-04-18T08:16:32.578Z,13.10
2023-04-18T08:19:00.716Z,10.18
2023-04-18T08:21:29.965Z,12.82
2023-04-18T08:23:58.087Z,11.18
2023-04-18T08:26:25.915Z,11.63
2023-04-18T08:28:53.905Z,12.23
2023-04-18T08:31:22.046Z,14.73
2023-04-18T08:33:50.015Z,13.20
2023-04-18T08:36:17.924Z,13.10
2023-04-18T08:38:47.615Z,12.88
2023-04-18T08:41:17.555Z,14.20
2023-04-18T08:43:48.883Z,16.77
2023-04-18T08:46:17.106Z,17.75
2023-04-18T08:48:45.093Z,16.08
2023-04-18T08:51:12.983Z,15.77
2023-04-18T08:53:42.105Z,14.65
2023-04-18T08:56:14.938Z,14.65
2023-04-18T08:58:45.173Z,14.68
2023-04-18T09:01:13.569Z,14.20
2023-04-18T09:03:43.252Z,14.10
2023-04-18T09:06:13.796Z,15.93
2023-04-18T09:08:43.537Z,14.27
2023-04-18T09:11:26.604Z,14.80
2023-04-18T09:13:56.388Z,14.02
2023-04-18T09:16:24.922Z,14.48
2023-04-18T09:19:13.241Z,13.77
2023-04-18T09:21:44.396Z,13.98
2023-04-18T09:24:21.028Z,15.90
2023-04-18T09:26:51.320Z,13.13
2023-04-18T09:29:22.592Z,13.75
2023-04-18T09:32:01.248Z,12.20
2023-04-18T09:34:30.108Z,19.45
2023-04-18T09:37:08.984Z,14.00
2023-04-18T09:39:38.348Z,11.77
2023-04-18T09:42:08.009Z,14.82
2023-04-18T09:44:35.991Z,13.90
2023-04-18T09:47:03.923Z,14.68
2023-04-18T09:49:31.929Z,12.20
2023-04-18T09:52:00.555Z,13.15
2023-04-18T09:54:30.014Z,12.10
2023-04-18T09:56:58.894Z,15.43
2023-04-18T09:59:35.409Z,12.23
2023-04-18T10:02:04.708Z,12.77
2023-04-18T10:04:34.218Z,12.13
2023-04-18T10:07:03.487Z,13.32
2023-04-18T10:09:33.183Z,12.60
2023-04-18T10:12:02.236Z,12.05
2023-04-18T10:14:33.680Z,11.68
2023-04-18T10:17:02.309Z,15.50
2023-04-18T10:19:30.745Z,13.20
2023-04-18T10:22:01.125Z,13.52
2023-04-18T10:24:49.418Z,12.35
2023-04-18T10:27:17.687Z,12.93
2023-04-18T10:29:51.084Z,13.65
2023-04-18T10:32:19.717Z,16.73
2023-04-18T10:34:48.144Z,13.38
2023-04-18T10:37:17.670Z,16.70
2023-04-18T10:39:57.075Z,14.20
2023-04-18T10:42:59.020Z,14.20
2023-04-18T10:45:31.617Z,12.68
2023-04-18T10:48:24.155Z,12.70
2023-04-18T10:51:14.056Z,13.68
2023-04-18T10:53:47.728Z,12.07
2023-04-18T10:56:16.684Z,12.50
2023-04-18T10:58:51.111Z,11.73
2023-04-18T11:01:28.607Z,17.17
2023-04-18T11:03:59.324Z,13.13
2023-04-18T11:06:27.684Z,12.35
2023-04-18T11:09:10.842Z,14.05
2023-04-18T11:11:38.871Z,9.93
2023-04-18T11:14:06.840Z,11.43
2023-04-18T11:16:36.353Z,10.30
2023-04-18T11:19:19.982Z,10.35
2023-04-18T11:21:47.966Z,13.40
2023-04-18T11:24:23.160Z,10.85
2023-04-18T11:26:55.602Z,10.88
2023-04-18T11:29:23.989Z,11.60
2023-04-18T11:31:57.562Z,12.70
2023-04-18T11:34:30.061Z,10.80
2023-04-18T11:36:58.338Z,12.85
2023-04-18T11:39:26.273Z,15.02
2023-04-18T11:41:56.427Z,15.20
2023-04-18T11:44:24.908Z,11.20
2023-04-18T11:46:54.430Z,10.25
2023-04-18T11:49:26.744Z,13.10
2023-04-18T11:51:54.803Z,11.50
2023-04-18T11:54:41.263Z,10.02
2023-04-18T11:57:21.348Z,9.90
2023-04-18T11:59:51.218Z,11.68
2023-04-18T12:02:21.306Z,11.95
2023-04-18T12:04:57.504Z,11.15
2023-04-18T12:07:37.410Z,11.07
2023-04-18T12:10:07.487Z,11.63
2023-04-18T12:12:36.038Z,10.35
2023-04-18T12:15:06.571Z,10.38
2023-04-18T12:17:37.874Z,9.60
2023-04-18T12:20:08.834Z,10.82
2023-04-18T12:22:41.912Z,10.00
2023-04-18T12:25:26.198Z,15.88
2023-04-18T12:27:58.028Z,9.13
2023-04-18T12:30:27.912Z,11.00
2023-04-18T12:32:58.873Z,12.68
2023-04-18T12:35:27.033Z,11.93
2023-04-18T12:37:56.977Z,11.77
2023-04-18T12:40:26.463Z,11.98
2023-04-18T12:42:55.405Z,11.48
2023-04-18T12:45:24.186Z,11.95
2023-04-18T12:47:53.109Z,12.20
2023-04-18T12:50:23.796Z,12.13
2023-04-18T12:52:53.831Z,9.70
2023-04-18T12:55:22.680Z,11.75
2023-04-18T12:57:52.282Z,9.68
2023-04-18T13:00:20.173Z,9.98
2023-04-18T13:02:48.229Z,10.98
2023-04-18T13:05:17.656Z,10.48
2023-04-18T13:07:48.904Z,9.77
2023-04-18T13:10:19.428Z,8.23
2023-04-18T13:12:47.539Z,9.23
2023-04-18T13:15:15.910Z,15.43
2023-04-18T13:17:44.889Z,8.52
2023-04-18T13:20:13.637Z,8.15
2023-04-18T13:22:44.818Z,11.77
2023-04-18T13:25:14.202Z,10.60
2023-04-18T13:27:42.715Z,8.15
2023-04-18T13:30:11.944Z,7.95
2023-04-18T13:32:40.568Z,7.22
2023-04-18T13:35:10.338Z,7.70
2023-04-18T13:37:38.927Z,7.18
2023-04-18T13:40:08.158Z,7.43
2023-04-18T13:42:38.481Z,8.93
2023-04-18T13:45:07.344Z,8.05
2023-04-18T13:47:35.978Z,9.82
2023-04-18T13:50:03.995Z,9.63
2023-04-18T13:52:32.065Z,7.38
2023-04-18T13:54:59.948Z,6.95
2023-04-18T13:57:28.424Z,7.57
2023-04-18T13:59:57.656Z,7.22
2023-04-18T14:02:25.757Z,7.65
2023-04-18T14:04:54.939Z,9.02
2023-04-18T14:07:23.083Z,7.45
2023-04-18T14:09:52.103Z,7.72
2023-04-18T14:12:21.749Z,8.18
2023-04-18T14:14:49.637Z,7.63
2023-04-18T14:17:18.948Z,8.13
2023-04-18T14:19:46.849Z,8.65
2023-04-18T14:22:14.721Z,9.20
2023-04-18T14:24:42.552Z,8.82
2023-04-18T14:27:10.735Z,9.82
2023-04-18T14:29:38.613Z,11.02
2023-04-18T14:32:07.736Z,14.07
2023-04-18T14:34:38.700Z,11.25
2023-04-18T14:37:06.795Z,11.77
2023-04-18T14:39:34.739Z,11.13
2023-04-18T14:42:02.810Z,10.10
2023-04-18T14:44:30.767Z,11.38
2023-04-18T14:46:58.710Z,11.85
2023-04-18T14:49:26.763Z,10.73
2023-04-18T14:51:56.067Z,11.00
2023-04-18T14:54:24.206Z,11.25
2023-04-18T14:56:52.126Z,11.43
2023-04-18T14:59:20.243Z,11.20
2023-04-18T15:01:48.396Z,12.10
2023-04-18T15:04:16.588Z,12.18
2023-04-18T15:06:44.820Z,11.85
2023-04-18T15:09:15.480Z,12.32
2023-04-18T15:11:43.393Z,12.88
2023-04-18T15:14:11.338Z,12.40
2023-04-18T15:16:40.828Z,12.07
2023-04-18T15:19:08.835Z,12.95
2023-04-18T15:21:36.877Z,11.85
2023-04-18T15:24:04.909Z,12.52
2023-04-18T15:26:34.187Z,13.30
2023-04-18T15:29:03.575Z,12.57
2023-04-18T15:31:31.671Z,12.13
2023-04-18T15:33:59.685Z,13.52
2023-04-18T15:36:28.031Z,13.75
2023-04-18T15:38:56.040Z,13.23
2023-04-18T15:41:23.986Z,13.48
2023-04-18T15:43:53.695Z,11.70
2023-04-18T15:46:22.098Z,12.82
2023-04-18T15:48:52.470Z,12.40
2023-04-18T15:51:22.041Z,12.75
2023-04-18T15:53:49.952Z,12.48
2023-04-18T15:56:17.889Z,12.75
2023-04-18T15:58:45.788Z,13.63
2023-04-18T16:01:16.076Z,14.20
2023-04-18T16:03:44.175Z,13.35
2023-04-18T16:06:12.440Z,13.60
2023-04-18T16:08:40.370Z,13.23
2023-04-18T16:11:08.983Z,13.93
2023-04-18T16:13:38.350Z,14.73
2023-04-18T16:16:07.131Z,14.15
2023-04-18T16:18:36.416Z,14.60
2023-04-18T16:21:04.482Z,15.05
2023-04-18T16:23:32.943Z,13.27
2023-04-18T16:26:00.841Z,14.05
2023-04-18T16:28:30.028Z,14.50
2023-04-18T16:30:58.001Z,13.40
2023-04-18T16:33:26.246Z,14.32
2023-04-18T16:35:58.079Z,14.23
2023-04-18T16:38:27.370Z,14.85
2023-04-18T16:40:57.088Z,14.20
2023-04-18T16:43:26.946Z,13.15
2023-04-18T16:45:56.469Z,15.20
2023-04-18T16:48:24.758Z,13.82
2023-04-18T16:50:52.849Z,14.95
2023-04-18T16:53:22.447Z,14.88
2023-04-18T16:55:52.207Z,14.10
2023-04-18T16:58:20.240Z,16.95
2023-04-18T17:00:48.349Z,14.30
2023-04-18T17:03:16.347Z,14.25
2023-04-18T17:05:44.603Z,14.95
2023-04-18T17:08:12.524Z,15.20
2023-04-18T17:10:41.807Z,13.93
2023-04-18T17:13:09.727Z,15.32
2023-04-18T17:15:38.287Z,14.93
2023-04-18T17:18:06.358Z,18.95
2023-04-18T17:20:36.049Z,15.57
2023-04-18T17:23:03.931Z,15.32
2023-04-18T17:25:31.916Z,16.27
2023-04-18T17:28:02.254Z,16.98
2023-04-18T17:30:30.451Z,17.80
2023-04-18T17:33:00.163Z,17.45
2023-04-18T17:35:28.154Z,17.10
2023-04-18T17:37:56.018Z,18.88
2023-04-18T17:40:24.064Z,18.98
2023-04-18T17:42:51.955Z,19.98
2023-04-18T17:45:21.464Z,20.98
2023-04-18T17:47:50.903Z,19.90
2023-04-18T17:50:19.050Z,19.90
2023-04-18T17:52:46.991Z,21.73
2023-04-18T17:55:15.785Z,21.42
2023-04-18T17:57:43.680Z,21.92
2023-04-18T18:00:13.817Z,22.98
2023-04-18T18:02:43.368Z,20.05
2023-04-18T18:05:13.929Z,20.30
2023-04-18T18:07:43.620Z,20.92
2023-04-18T18:10:12.974Z,22.73
2023-04-18T18:12:41.038Z,23.20
2023-04-18T18:15:10.365Z,21.08
2023-04-18T18:17:38.308Z,23.42
2023-04-18T18:20:09.872Z,22.15
2023-04-18T18:22:37.821Z,21.80
2023-04-18T18:25:06.388Z,22.02
2023-04-18T18:27:34.333Z,22.10
2023-04-18T18:30:02.381Z,23.60
2023-04-18T18:32:30.370Z,24.23
2023-04-18T18:34:58.357Z,22.15
2023-04-18T18:37:27.928Z,22.48
2023-04-18T18:39:56.260Z,23.13
2023-04-18T18:42:24.398Z,23.10
2023-04-18T18:44:52.442Z,24.65
2023-04-18T18:47:20.389Z,24.13
2023-04-18T18:49:48.777Z,23.70
2023-04-18T18:52:16.946Z,23.85
2023-04-18T18:54:46.215Z,24.60
2023-04-18T18:57:14.142Z,25.05
2023-04-18T18:59:42.651Z,23.80
2023-04-18T19:02:10.698Z,24.45
2023-04-18T19:04:38.906Z,25.15
2023-04-18T19:07:07.272Z,25.60
2023-04-18T19:09:36.845Z,24.42
2023-04-18T19:12:06.834Z,25.45
2023-04-18T19:14:34.932Z,24.60
2023-04-18T19:17:03.169Z,23.60
2023-04-18T19:19:31.124Z,24.30
2023-04-18T19:22:01.043Z,24.00
2023-04-18T19:24:29.205Z,24.02
2023-04-18T19:26:57.125Z,25.65
2023-04-18T19:29:26.339Z,23.77
2023-04-18T19:31:54.369Z,24.25
2023-04-18T19:34:22.428Z,26.83
2023-04-18T19:36:50.423Z,27.15
2023-04-18T19:39:18.314Z,27.50
2023-04-18T19:41:46.961Z,26.13
2023-04-18T19:44:14.869Z,24.20
2023-04-18T19:46:44.283Z,23.88
2023-04-18T19:49:12.293Z,23.02
2023-04-18T19:51:40.748Z,22.25
2023-04-18T19:54:08.608Z,22.85
2023-04-18T19:56:36.488Z,23.15
2023-04-18T19:59:05.957Z,24.88
2023-04-18T20:01:34.062Z,25.83
2023-04-18T20:04:04.080Z,22.50
2023-04-18T20:06:32.074Z,22.52
2023-04-18T20:09:00.359Z,22.80
2023-04-18T20:11:28.236Z,21.83
2023-04-18T20:13:56.617Z,23.85
2023-04-18T20:16:24.672Z,22.55
2023-04-18T20:18:54.797Z,22.10
2023-04-18T20:21:26.855Z,22.58
2023-04-18T20:23:56.534Z,21.30
2023-04-18T20:26:24.589Z,22.35
2023-04-18T20:28:52.477Z,22.67
2023-04-18T20:31:20.447Z,23.58
2023-04-18T20:33:48.408Z,21.88
2023-04-18T20:36:17.654Z,22.20
2023-04-18T20:38:47.052Z,23.23
2023-04-18T20:41:18.131Z,20.95
2023-04-18T20:43:46.845Z,21.42
2023-04-18T20:46:16.096Z,22.75
2023-04-18T20:48:44.659Z,20.77
2023-04-18T20:51:12.549Z,22.08
2023-04-18T20:53:40.663Z,19.90
2023-04-18T20:56:09.907Z,21.92
2023-04-18T20:58:37.856Z,23.73
2023-04-18T21:01:07.063Z,21.20
2023-04-18T21:03:35.202Z,23.55
2023-04-18T21:06:03.263Z,21.45
2023-04-18T21:08:31.711Z,22.15
2023-04-18T21:10:59.602Z,20.85
2023-04-18T21:13:28.880Z,21.15
2023-04-18T21:15:57.201Z,20.48
2023-04-18T21:18:25.600Z,23.65
2023-04-18T21:20:53.950Z,23.90
2023-04-18T21:23:23.806Z,24.55
2023-04-18T21:25:51.709Z,22.02
2023-04-18T21:28:20.225Z,21.52
2023-04-18T21:30:49.448Z,21.20
2023-04-18T21:33:19.298Z,22.75
2023-04-18T21:35:47.173Z,24.65
2023-04-18T21:38:15.046Z,20.55
2023-04-18T21:40:45.528Z,21.30
2023-04-18T21:43:13.441Z,22.55
2023-04-18T21:45:41.393Z,21.10
2023-04-18T21:48:11.527Z,21.88
2023-04-18T21:50:39.401Z,21.15
2023-04-18T21:53:07.300Z,21.05
2023-04-18T21:55:37.567Z,21.65
2023-04-18T21:58:05.549Z,21.52
2023-04-18T22:00:33.534Z,20.50
2023-04-18T22:03:01.579Z,21.35
2023-04-18T22:05:31.083Z,22.30
2023-04-18T22:07:59.016Z,21.40
2023-04-18T22:10:26.906Z,21.00
2023-04-18T22:12:55.137Z,20.33
2023-04-18T22:15:23.728Z,22.42
2023-04-18T22:17:52.081Z,19.77
2023-04-18T22:20:19.955Z,23.02
2023-04-18T22:22:49.254Z,23.63
2023-04-18T22:25:17.197Z,21.63
2023-04-18T22:27:46.670Z,21.95
2023-04-18T22:30:15.527Z,22.08
2023-04-18T22:32:43.534Z,22.23
2023-04-18T22:35:11.454Z,20.58
2023-04-18T22:37:39.356Z,23.70
2023-04-18T22:40:10.014Z,21.65
2023-04-18T22:42:38.831Z,21.83
2023-04-18T22:45:08.294Z,22.95
2023-04-18T22:47:36.205Z,22.27
2023-04-18T22:50:04.177Z,20.70
2023-04-18T22:52:32.121Z,23.27
2023-04-18T22:54:59.965Z,22.58
2023-04-18T22:57:31.553Z,22.20
2023-04-18T22:59:59.394Z,22.27
2023-04-18T23:02:27.424Z,23.00
2023-04-18T23:04:58.274Z,22.13
2023-04-18T23:07:26.250Z,22.70
2023-04-18T23:09:54.091Z,22.42
2023-04-18T23:12:22.052Z,21.83
2023-04-18T23:14:51.311Z,21.83
2023-04-18T23:17:19.165Z,24.35
2023-04-18T23:19:47.025Z,23.40
2023-04-18T23:22:14.927Z,23.08
2023-04-18T23:24:42.777Z,23.20
2023-04-18T23:27:10.790Z,23.88
2023-04-18T23:29:39.637Z,24.45
2023-04-18T23:32:09.004Z,23.13
2023-04-18T23:34:36.859Z,26.25
2023-04-18T23:37:04.730Z,22.05
2023-04-18T23:39:32.570Z,23.38
2023-04-18T23:42:01.216Z,26.00
2023-04-18T23:44:29.012Z,22.58
2023-04-18T23:46:56.951Z,23.55
2023-04-18T23:49:28.385Z,25.38
2023-04-18T23:51:56.265Z,25.23
2023-04-18T23:54:24.163Z,24.00
2023-04-18T23:56:51.991Z,22.48
2023-04-18T23:59:20.132Z,24.50
